This is the latest recevied weather packets stored in our database for station/object KC2G. If no packets are shown the sender has not sent any weather packets the latest 1 day(s).
| Time | Temp. | Humidity | Pressure | Rain* | Wind** | Luminosity | Snow |
|---|---|---|---|---|---|---|---|
| 1778106655 | 16.67° C | 98% | 1007.1 hPa | 0 mm | 0.45 m/s, 122° | - | - |
| 1778103521 | 16.67° C | 99% | 1006.8 hPa | 0 mm | 0.45 m/s, 108° | - | - |
| 1778102155 | 16.67° C | 99% | 1006.8 hPa | 0 mm | 0.45 m/s, 108° | - | - |
| 1778096788 | 16.11° C | 99% | 1007.2 hPa | 0.51 mm | 0.45 m/s, 182° | - | - |
| 1778096755 | 16.11° C | 99% | 1007.2 hPa | 0.51 mm | 0.45 m/s, 182° | - | - |
| 1778093155 | 17.22° C | 93% | 1007.3 hPa | 0 mm | 0.45 m/s, 141° | - | - |
| 1778092255 | 17.78° C | 92% | 1007.4 hPa | 0 mm | 0.45 m/s, 204° | - | - |
| 1778091990 | 17.78° C | 92% | 1007.7 hPa | 0 mm | 0.45 m/s, 159° | - | - |
| 1778091355 | 17.78° C | 92% | 1007.4 hPa | 0 mm | 0.45 m/s, 192° | - | - |
| 1778085955 | 17.22° C | 94% | 1008 hPa | 1.78 mm | 0 m/s | - | - |
| 1778084155 | 18.33° C | 84% | 1008.6 hPa | 0.25 mm | 0 m/s | - | - |
| 1778083255 | 19.44° C | 81% | 1008.6 hPa | 0.25 mm | 0.45 m/s, 135° | - | - |
| 1778082355 | 19.44° C | 77% | 1008.3 hPa | 0.25 mm | 0.45 m/s, 173° | - | - |
| 1778080461 | 20° C | 72% | 1008.6 hPa | 0 mm | 0.45 m/s, 208° | - | - |
| 1778076955 | 19.44° C | 75% | 1008.6 hPa | 0 mm | 0.45 m/s, 107° | - | - |
| 1778076055 | 19.44° C | 75% | 1008.8 hPa | 0 mm | 0.89 m/s, 166° | - | - |
| 1778075155 | 19.44° C | 75% | 1008.9 hPa | 0 mm | 0.45 m/s, 220° | - | - |
| 1778074255 | 18.89° C | 76% | 1008.6 hPa | 0 mm | 0.45 m/s, 166° | - | - |
| 1778067955 | 18.89° C | 79% | 1009 hPa | 0 mm | 0.89 m/s, 149° | - | - |
| 1778066155 | 17.78° C | 82% | 1009 hPa | 0 mm | 0.45 m/s, 112° | - | - |
| 1778065255 | 17.22° C | 84% | 1008.9 hPa | 0 mm | 0.45 m/s, 92° | - | - |
| 1778064355 | 17.22° C | 87% | 1009.1 hPa | 0 mm | 0 m/s | - | - |
| 1778062554 | 16.11° C | 90% | 1008.9 hPa | 0 mm | 0 m/s | - | - |
| 1778059344 | 16.67° C | 87% | 1008.8 hPa | 0 mm | 0 m/s | - | - |
| 1778058955 | 16.11° C | 88% | 1008.7 hPa | 0 mm | 0 m/s | - | - |
* Rain latest hour (hover to see other rain measurements)
** Current wind speed in m/s (hover to see current wind gust speed)